Aérodrome :
LOGIN :

S'inscrire | Disclaimer

   EN    FR    IT 

 










Légende :    VFR   VFR Marginal   IFR   IFR Intensif   IFR Très Intensif
Visi : 
Plafond : 
>= 8 km
>= 3000ft
5 à 8 km
1000 à 3000 ft
1500m à 5 km
500 à 1000 ft
800 à 1500m
200 à 500 ft
< 800m
< 200 ft
Symboles :   Orages  Brouillard  Fortes neiges  Fortes précipitations  Vent > 20 kt
SIGMETs :   Divers  Orages  Givrage  Turbulence  Onde Orograph.  Cendres Volcan.






- Altitude de l'aérodrome : 124 ft
- Code IATA : AVN


LFMV - Avignon Caumont

DERNIER METAR :
  • 272130Z AUTO 33008KT 9000 OVC072 08/06 Q1014 NOSIG

METARs EXPIRÉS :
  • 272100Z AUTO 29004KT 250V320 9999 OVC068 07/06 Q1013 NOSIG
  • 272030Z AUTO VRB02KT 9999 FEW058 OVC072 07/06 Q1013 NOSIG
  • 272000Z AUTO 02005KT 010V110 9999 FEW078 05/04 Q1012 NOSIG
  • 271930Z AUTO 19003KT 160V230 CAVOK 06/04 Q1011 BECMG 33010KT
  • 271900Z AUTO VRB01KT 9999 FEW037 07/04 Q1011 NOSIG

TAF AMD TAF LFMV
Valide du 27 à 16h jusqu'au 28 à 15h UTC


271614Z 2716/2815 12010KT 9999 BKN030
BECMG 2717/2719 VRB05KT BKN055
BECMG 2720/2722 33010KT
BECMG 2722/2723 CAVOK
BECMG 2803/2805 34017KT
TEMPO 2805/2807 34017G27KT
BECMG 2812/2814 32007KT
BECMG 2814/2815 VRB03KT
ATIS : +33 4 90 84 32 84



MET'MAP, la Météo Aéronautique d'un coup d'oeil ! - Copyright ORBIFLY Décembre 2007 - Disclaimer

ORBIFLY MET'MAP TEAM :

Programmation & Développement : Alexandra Zaïnal
Sur une idée originale de : Baudouin d'Aumeries
Assistance à la programmation : Marc-Olivier Méhu
Soutien technique & logistique : Manuel Goepfert

Contact : metmap@orbifly.com




SOURCES & CREDITS :

   NOAA